createdAt,value
2022-11-30T00:00:32.875Z,19.20
2022-11-30T00:01:32.453Z,20.00
2022-11-30T00:02:32.588Z,15.60
2022-11-30T00:03:32.445Z,21.90
2022-11-30T00:04:32.519Z,20.80
2022-11-30T00:05:32.483Z,17.90
2022-11-30T00:06:32.509Z,20.60
2022-11-30T00:07:32.447Z,15.70
2022-11-30T00:08:32.349Z,20.00
2022-11-30T00:09:32.451Z,18.20
2022-11-30T00:10:32.346Z,21.90
2022-11-30T00:11:32.519Z,22.70
2022-11-30T00:12:32.356Z,22.70
2022-11-30T00:13:32.305Z,18.60
2022-11-30T00:14:32.363Z,17.40
2022-11-30T00:15:32.283Z,20.40
2022-11-30T00:16:32.561Z,21.20
2022-11-30T00:17:32.376Z,20.50
2022-11-30T00:18:32.223Z,20.60
2022-11-30T00:19:32.332Z,16.00
2022-11-30T00:20:32.202Z,19.70
2022-11-30T00:21:32.465Z,20.50
2022-11-30T00:22:32.209Z,20.40
2022-11-30T00:23:32.292Z,19.30
2022-11-30T00:24:32.158Z,19.00
2022-11-30T00:25:32.258Z,25.00
2022-11-30T00:26:32.120Z,21.90
2022-11-30T00:27:32.259Z,21.20
2022-11-30T00:28:32.132Z,20.10
2022-11-30T00:29:32.193Z,15.80
2022-11-30T00:30:32.096Z,18.70
2022-11-30T00:31:32.201Z,17.30
2022-11-30T00:32:32.037Z,19.80
2022-11-30T00:33:32.207Z,20.20
2022-11-30T00:34:32.037Z,20.00
2022-11-30T00:35:32.130Z,16.40
2022-11-30T00:36:32.000Z,19.80
2022-11-30T00:37:32.126Z,21.50
2022-11-30T00:38:32.067Z,20.00
2022-11-30T00:39:35.452Z,20.40
2022-11-30T00:40:32.039Z,18.00
2022-11-30T00:41:31.941Z,18.40
2022-11-30T00:42:32.040Z,18.70
2022-11-30T00:43:32.135Z,19.50
2022-11-30T00:44:31.915Z,20.20
2022-11-30T00:45:32.083Z,18.90
2022-11-30T00:46:31.927Z,18.30
2022-11-30T00:47:32.109Z,22.20
2022-11-30T00:48:31.840Z,17.60
2022-11-30T00:49:31.986Z,15.10
2022-11-30T00:50:31.810Z,18.50
2022-11-30T00:51:32.026Z,20.60
2022-11-30T00:52:31.808Z,19.60
2022-11-30T00:53:31.961Z,18.60
2022-11-30T00:54:31.778Z,21.00
2022-11-30T00:55:31.896Z,22.50
2022-11-30T00:56:31.737Z,23.30
2022-11-30T00:57:31.933Z,18.00
2022-11-30T00:58:31.730Z,19.60
2022-11-30T00:59:31.779Z,21.50
2022-11-30T01:00:31.714Z,21.20
2022-11-30T01:01:31.929Z,21.10
2022-11-30T01:02:31.671Z,19.90
2022-11-30T01:03:31.801Z,19.60
2022-11-30T01:04:31.695Z,17.30
2022-11-30T01:05:31.640Z,20.80
2022-11-30T01:06:31.745Z,21.50
2022-11-30T01:07:31.687Z,17.70
2022-11-30T01:08:31.732Z,23.20
2022-11-30T01:09:31.736Z,17.70
2022-11-30T01:10:31.571Z,22.90
2022-11-30T01:11:31.661Z,18.50
2022-11-30T01:12:31.575Z,25.00
2022-11-30T01:13:31.678Z,22.30
2022-11-30T01:14:31.530Z,21.10
2022-11-30T01:15:31.621Z,21.30
2022-11-30T01:16:31.477Z,20.60
2022-11-30T01:17:31.644Z,20.90
2022-11-30T01:18:31.454Z,19.40
2022-11-30T01:19:31.595Z,23.70
2022-11-30T01:20:31.432Z,22.90
2022-11-30T01:21:31.529Z,22.10
2022-11-30T01:22:31.439Z,20.80
2022-11-30T01:23:31.556Z,16.70
2022-11-30T01:24:31.366Z,26.90
2022-11-30T01:25:31.552Z,21.20
2022-11-30T01:26:31.358Z,24.20
2022-11-30T01:27:31.456Z,23.40
2022-11-30T01:28:31.973Z,19.00
2022-11-30T01:29:31.466Z,22.30
2022-11-30T01:30:31.452Z,28.40
2022-11-30T01:31:31.334Z,22.20
2022-11-30T01:32:31.385Z,22.30
2022-11-30T01:33:31.304Z,22.10
2022-11-30T01:34:31.411Z,20.20
2022-11-30T01:35:31.469Z,18.30
2022-11-30T01:36:31.218Z,19.90
2022-11-30T01:37:31.434Z,22.20
2022-11-30T01:38:31.209Z,21.10
2022-11-30T01:39:31.336Z,21.20
2022-11-30T01:40:31.176Z,24.30
2022-11-30T01:41:31.313Z,20.90
2022-11-30T01:42:31.148Z,21.10
2022-11-30T01:43:31.256Z,18.50
2022-11-30T01:44:31.112Z,20.80
2022-11-30T01:45:31.350Z,20.40
2022-11-30T01:46:31.128Z,19.70
2022-11-30T01:47:31.194Z,19.80
2022-11-30T01:48:31.051Z,20.10
2022-11-30T01:49:31.226Z,20.50
2022-11-30T01:50:31.038Z,18.90
2022-11-30T01:51:31.169Z,20.80
2022-11-30T01:52:31.026Z,18.60
2022-11-30T01:53:31.144Z,19.20
2022-11-30T01:54:30.992Z,19.90
2022-11-30T01:55:31.196Z,19.60
2022-11-30T01:56:31.255Z,19.50
2022-11-30T01:57:31.020Z,20.00
2022-11-30T01:58:31.057Z,17.80
2022-11-30T01:59:30.966Z,23.30
2022-11-30T02:00:31.310Z,15.60
2022-11-30T02:01:31.174Z,18.60
2022-11-30T02:02:31.055Z,17.20
2022-11-30T02:03:31.362Z,19.60
2022-11-30T02:04:30.882Z,18.50
2022-11-30T02:05:31.103Z,18.70
2022-11-30T02:06:30.870Z,20.40
2022-11-30T02:07:31.167Z,21.20
2022-11-30T02:08:30.977Z,21.00
2022-11-30T02:09:30.929Z,19.30
2022-11-30T02:10:30.785Z,17.40
2022-11-30T02:11:30.983Z,22.30
2022-11-30T02:12:30.760Z,21.00
2022-11-30T02:13:30.872Z,24.20
2022-11-30T02:14:30.764Z,20.10
2022-11-30T02:15:30.903Z,21.40
2022-11-30T02:16:30.717Z,18.00
2022-11-30T02:17:30.913Z,18.90
2022-11-30T02:18:30.691Z,22.40
2022-11-30T02:19:30.841Z,16.60
2022-11-30T02:20:30.660Z,21.80
2022-11-30T02:21:30.840Z,19.40
2022-11-30T02:22:30.650Z,17.10
2022-11-30T02:23:30.828Z,18.10
2022-11-30T02:24:30.603Z,17.00
2022-11-30T02:25:30.973Z,15.70
2022-11-30T02:26:30.612Z,16.00
2022-11-30T02:27:30.853Z,17.70
2022-11-30T02:28:30.608Z,19.20
2022-11-30T02:29:30.654Z,20.60
2022-11-30T02:30:30.537Z,14.70
2022-11-30T02:31:30.785Z,20.50
2022-11-30T02:32:30.502Z,16.70
2022-11-30T02:33:30.598Z,17.90
2022-11-30T02:34:30.484Z,17.40
2022-11-30T02:35:30.614Z,18.50
2022-11-30T02:36:30.475Z,14.50
2022-11-30T02:37:30.640Z,15.40
2022-11-30T02:38:30.419Z,16.70
2022-11-30T02:39:30.685Z,16.60
2022-11-30T02:40:30.427Z,15.40
2022-11-30T02:41:34.979Z,14.70
2022-11-30T02:42:30.389Z,21.80
2022-11-30T02:43:30.506Z,14.30
2022-11-30T02:44:30.373Z,14.80
2022-11-30T02:45:30.480Z,19.50
2022-11-30T02:46:30.370Z,20.60
2022-11-30T02:47:30.498Z,16.00
2022-11-30T02:48:30.344Z,15.30
2022-11-30T02:49:30.493Z,18.80
2022-11-30T02:50:30.280Z,15.90
2022-11-30T02:51:30.453Z,18.90
2022-11-30T02:52:30.264Z,14.10
2022-11-30T02:53:30.432Z,19.00
2022-11-30T02:54:30.220Z,17.10
2022-11-30T02:55:30.445Z,16.40
2022-11-30T02:56:30.216Z,14.10
2022-11-30T02:57:30.451Z,17.10
2022-11-30T02:58:30.178Z,18.30
2022-11-30T02:59:30.260Z,16.10
2022-11-30T03:00:30.271Z,15.60
2022-11-30T03:01:30.381Z,19.40
2022-11-30T03:02:30.187Z,17.50
2022-11-30T03:03:30.395Z,18.20
2022-11-30T03:04:30.134Z,18.50
2022-11-30T03:05:30.208Z,15.10
2022-11-30T03:06:30.073Z,16.90
2022-11-30T03:07:30.288Z,14.90
2022-11-30T03:08:30.063Z,19.80
2022-11-30T03:09:30.234Z,14.30
2022-11-30T03:10:30.056Z,14.50
2022-11-30T03:11:30.256Z,14.80
2022-11-30T03:12:30.040Z,13.80
2022-11-30T03:13:30.153Z,18.00
2022-11-30T03:14:30.053Z,12.70
2022-11-30T03:15:29.980Z,14.80
2022-11-30T03:16:30.061Z,13.60
2022-11-30T03:17:29.996Z,13.60
2022-11-30T03:18:30.072Z,13.20
2022-11-30T03:19:29.931Z,17.50
2022-11-30T03:20:30.137Z,16.10
2022-11-30T03:21:29.913Z,13.30
2022-11-30T03:22:30.015Z,14.30
2022-11-30T03:23:29.878Z,13.20
2022-11-30T03:24:30.028Z,11.30
2022-11-30T03:25:30.083Z,13.40
2022-11-30T03:26:30.078Z,12.10
2022-11-30T03:27:29.848Z,15.60
2022-11-30T03:28:29.950Z,12.50
2022-11-30T03:29:29.805Z,10.90
2022-11-30T03:30:29.988Z,16.80
2022-11-30T03:31:29.875Z,11.40
2022-11-30T03:32:29.969Z,12.10
2022-11-30T03:33:29.756Z,10.70
2022-11-30T03:34:29.880Z,13.00
2022-11-30T03:35:29.779Z,14.40
2022-11-30T03:36:29.896Z,11.90
2022-11-30T03:37:29.750Z,13.80
2022-11-30T03:38:29.907Z,12.20
2022-11-30T03:39:29.672Z,12.50
2022-11-30T03:40:29.766Z,19.50
2022-11-30T03:41:29.657Z,14.80
2022-11-30T03:42:29.726Z,17.60
2022-11-30T03:43:29.652Z,13.30
2022-11-30T03:45:19.972Z,16.10
2022-11-30T03:46:21.100Z,9.60
2022-11-30T03:47:21.669Z,15.20
2022-11-30T03:48:21.094Z,13.20
2022-11-30T03:49:20.895Z,12.80
2022-11-30T03:50:21.015Z,14.80
2022-11-30T03:51:20.870Z,11.00
2022-11-30T03:52:21.021Z,12.80
2022-11-30T03:53:20.874Z,9.80
2022-11-30T03:54:21.023Z,12.10
2022-11-30T03:55:20.812Z,12.90
2022-11-30T03:56:21.056Z,14.80
2022-11-30T03:57:20.788Z,10.50
2022-11-30T03:58:20.847Z,10.40
2022-11-30T03:59:20.805Z,11.30
2022-11-30T04:00:20.952Z,15.70
2022-11-30T04:01:20.758Z,10.20
2022-11-30T04:02:20.921Z,12.90
2022-11-30T04:03:20.714Z,12.40
2022-11-30T04:04:20.788Z,12.20
2022-11-30T04:05:20.716Z,11.30
2022-11-30T04:06:20.817Z,12.30
2022-11-30T04:07:20.686Z,15.10
2022-11-30T04:08:20.866Z,10.80
2022-11-30T04:09:20.638Z,13.30
2022-11-30T04:10:20.840Z,12.10
2022-11-30T04:11:20.831Z,10.00
2022-11-30T04:12:20.614Z,12.60
2022-11-30T04:13:20.790Z,12.40
2022-11-30T04:14:20.616Z,10.80
2022-11-30T04:15:20.756Z,10.20
2022-11-30T04:16:20.694Z,13.20
2022-11-30T04:17:20.661Z,10.60
2022-11-30T04:18:20.533Z,11.90
2022-11-30T04:19:20.606Z,13.60
2022-11-30T04:20:20.526Z,11.70
2022-11-30T04:21:20.587Z,9.40
2022-11-30T04:22:20.484Z,9.00
2022-11-30T04:23:20.500Z,9.40
2022-11-30T04:24:20.458Z,10.30
2022-11-30T04:25:20.575Z,9.00
2022-11-30T04:26:20.425Z,9.50
2022-11-30T04:27:20.534Z,10.40
2022-11-30T04:28:20.521Z,11.20
2022-11-30T04:29:20.592Z,11.50
2022-11-30T04:30:20.396Z,10.40
2022-11-30T04:31:20.601Z,13.30
2022-11-30T04:32:20.360Z,11.70
2022-11-30T04:33:20.371Z,11.70
2022-11-30T04:34:20.354Z,11.10
2022-11-30T04:35:20.429Z,11.40
2022-11-30T04:36:20.337Z,10.50
2022-11-30T04:37:20.387Z,10.60
2022-11-30T04:38:20.285Z,9.20
2022-11-30T04:39:20.404Z,10.70
2022-11-30T04:40:20.262Z,13.20
2022-11-30T04:41:20.470Z,9.20
2022-11-30T04:42:20.294Z,10.90
2022-11-30T04:43:20.193Z,12.50
2022-11-30T04:44:20.255Z,9.40
2022-11-30T04:45:20.169Z,11.30
2022-11-30T04:46:20.355Z,9.60
2022-11-30T04:47:20.144Z,10.20
2022-11-30T04:48:20.278Z,10.90
2022-11-30T04:49:20.124Z,11.60
2022-11-30T04:50:20.301Z,12.60
2022-11-30T04:51:20.130Z,11.30
2022-11-30T04:52:20.202Z,10.30
2022-11-30T04:53:20.086Z,8.80
2022-11-30T04:54:20.268Z,10.50
2022-11-30T04:55:20.036Z,10.70
2022-11-30T04:56:20.125Z,11.20
2022-11-30T04:57:20.054Z,13.30
2022-11-30T04:58:20.141Z,9.80
2022-11-30T04:59:20.121Z,13.30
2022-11-30T05:00:20.226Z,10.90
2022-11-30T05:01:20.034Z,9.10
2022-11-30T05:02:20.070Z,7.90
2022-11-30T05:03:20.112Z,13.00
2022-11-30T05:04:20.015Z,11.20
2022-11-30T05:05:20.086Z,12.20
2022-11-30T05:06:19.928Z,9.00
2022-11-30T05:07:20.019Z,12.80
2022-11-30T05:08:20.017Z,11.00
2022-11-30T05:09:19.871Z,12.40
2022-11-30T05:10:20.086Z,10.20
2022-11-30T05:11:19.858Z,12.30
2022-11-30T05:12:20.049Z,8.40
2022-11-30T05:13:19.810Z,9.60
2022-11-30T05:14:19.988Z,14.30
2022-11-30T05:15:19.792Z,13.90
2022-11-30T05:16:19.891Z,10.30
2022-11-30T05:17:19.750Z,11.70
2022-11-30T05:18:19.929Z,10.20
2022-11-30T05:19:19.779Z,14.60
2022-11-30T05:20:19.896Z,16.70
2022-11-30T05:21:19.703Z,10.20
2022-11-30T05:22:19.804Z,10.40
2022-11-30T05:23:19.694Z,10.60
2022-11-30T05:24:19.969Z,13.20
2022-11-30T05:25:19.664Z,13.10
2022-11-30T05:26:19.833Z,15.90
2022-11-30T05:27:22.676Z,10.00
2022-11-30T05:28:19.758Z,9.50
2022-11-30T05:29:19.614Z,11.90
2022-11-30T05:30:19.779Z,13.90
2022-11-30T05:31:19.691Z,10.30
2022-11-30T05:32:19.736Z,9.50
2022-11-30T05:33:19.580Z,9.60
2022-11-30T05:34:19.688Z,8.70
2022-11-30T05:35:19.552Z,10.40
2022-11-30T05:36:19.641Z,9.20
2022-11-30T05:37:19.505Z,10.40
2022-11-30T05:38:19.637Z,10.10
2022-11-30T05:39:19.500Z,10.30
2022-11-30T05:40:19.613Z,10.60
2022-11-30T05:41:19.485Z,9.70
2022-11-30T05:42:19.686Z,8.30
2022-11-30T05:43:19.424Z,12.30
2022-11-30T05:44:19.644Z,7.90
2022-11-30T05:45:19.627Z,9.80
2022-11-30T05:46:19.606Z,9.10
2022-11-30T05:47:19.421Z,11.80
2022-11-30T05:48:19.583Z,8.80
2022-11-30T05:49:19.424Z,10.80
2022-11-30T05:50:19.818Z,8.00
2022-11-30T05:51:19.451Z,7.70
2022-11-30T05:52:20.011Z,9.70
2022-11-30T05:53:20.139Z,8.40
2022-11-30T05:54:19.526Z,9.20
2022-11-30T05:55:19.841Z,8.30
2022-11-30T05:56:19.913Z,7.30
2022-11-30T05:57:19.667Z,8.90
2022-11-30T05:58:19.598Z,10.30
2022-11-30T05:59:19.979Z,9.10
2022-11-30T06:00:19.882Z,10.60
2022-11-30T06:01:19.869Z,10.40
2022-11-30T06:02:25.142Z,10.00
2022-11-30T06:03:19.433Z,10.00
2022-11-30T06:04:19.981Z,9.70
2022-11-30T06:05:19.435Z,8.70
2022-11-30T06:06:19.267Z,9.40
2022-11-30T06:07:19.581Z,7.60
2022-11-30T06:08:19.252Z,10.50
2022-11-30T06:09:19.349Z,9.80
2022-11-30T06:10:19.115Z,15.40
2022-11-30T06:11:19.218Z,10.10
2022-11-30T06:12:19.114Z,8.80
2022-11-30T06:13:19.232Z,7.90
2022-11-30T06:14:19.090Z,7.60
2022-11-30T06:15:19.169Z,9.40
2022-11-30T06:16:19.121Z,10.60
2022-11-30T06:17:19.274Z,9.20
2022-11-30T06:18:19.016Z,11.70
2022-11-30T06:19:19.168Z,9.10
2022-11-30T06:20:18.974Z,7.40
2022-11-30T06:21:24.139Z,8.00
2022-11-30T06:22:18.970Z,9.80
2022-11-30T06:23:19.016Z,12.40
2022-11-30T06:24:18.946Z,7.60
2022-11-30T06:25:19.053Z,10.10
2022-11-30T06:26:19.040Z,10.30
2022-11-30T06:27:19.159Z,6.60
2022-11-30T06:28:19.093Z,7.90
2022-11-30T06:29:18.863Z,9.50
2022-11-30T06:30:19.037Z,9.90
2022-11-30T06:31:18.972Z,8.40
2022-11-30T06:32:18.843Z,8.40
2022-11-30T06:33:18.966Z,8.20
2022-11-30T06:34:19.003Z,7.80
2022-11-30T06:35:18.935Z,9.80
2022-11-30T06:36:18.971Z,7.60
2022-11-30T06:37:18.923Z,10.00
2022-11-30T06:38:18.756Z,8.70
2022-11-30T06:39:36.672Z,8.20
2022-11-30T06:40:19.063Z,8.50
2022-11-30T06:41:18.689Z,6.40
2022-11-30T06:42:18.900Z,7.90
2022-11-30T06:43:18.654Z,10.90
2022-11-30T06:44:19.391Z,6.80
2022-11-30T06:45:18.724Z,6.40
2022-11-30T06:46:18.909Z,8.50
2022-11-30T06:47:19.426Z,7.80
2022-11-30T06:48:19.742Z,10.00
2022-11-30T06:49:18.663Z,7.90
2022-11-30T06:50:18.615Z,6.70
2022-11-30T06:51:18.731Z,8.90
2022-11-30T06:52:18.606Z,13.80
2022-11-30T06:53:18.756Z,6.80
2022-11-30T06:54:18.554Z,8.40
2022-11-30T06:55:18.707Z,8.80
2022-11-30T06:56:18.555Z,8.80
2022-11-30T06:57:18.714Z,9.90
2022-11-30T06:58:18.501Z,9.00
2022-11-30T06:59:18.590Z,7.80
2022-11-30T07:00:18.744Z,8.50
2022-11-30T07:01:18.622Z,10.20
2022-11-30T07:02:18.941Z,12.60
2022-11-30T07:03:18.625Z,8.80
2022-11-30T07:04:18.477Z,9.20
2022-11-30T07:05:18.561Z,7.30
2022-11-30T07:06:18.443Z,10.10
2022-11-30T07:07:18.649Z,10.10
2022-11-30T07:08:18.390Z,11.50
2022-11-30T07:09:18.594Z,8.70
2022-11-30T07:10:20.313Z,12.10
2022-11-30T07:11:18.497Z,8.50
2022-11-30T07:12:18.326Z,7.20
2022-11-30T07:13:18.425Z,10.30
2022-11-30T07:14:18.286Z,9.80
2022-11-30T07:15:18.340Z,8.80
2022-11-30T07:16:18.394Z,7.50
2022-11-30T07:17:18.516Z,7.60
2022-11-30T07:18:18.307Z,8.30
2022-11-30T07:19:18.356Z,10.40
2022-11-30T07:20:18.659Z,10.80
2022-11-30T07:21:18.292Z,7.60
2022-11-30T07:22:18.171Z,6.10
2022-11-30T07:23:18.324Z,10.70
2022-11-30T07:24:18.633Z,10.30
2022-11-30T07:25:18.325Z,10.00
2022-11-30T07:26:18.150Z,12.30
2022-11-30T07:27:18.235Z,11.00
2022-11-30T07:28:18.301Z,12.00
2022-11-30T07:29:18.461Z,11.30
2022-11-30T07:30:18.245Z,15.10
2022-11-30T07:31:18.166Z,10.10
2022-11-30T07:32:19.107Z,10.20
2022-11-30T07:33:18.042Z,8.50
2022-11-30T07:34:18.265Z,9.40
2022-11-30T07:35:18.104Z,8.70
2022-11-30T07:36:18.318Z,9.30
2022-11-30T07:37:18.347Z,9.90
2022-11-30T07:38:18.292Z,11.30
2022-11-30T07:39:18.047Z,8.70
2022-11-30T07:40:18.133Z,9.70
2022-11-30T07:41:17.983Z,8.60
2022-11-30T07:42:18.163Z,9.90
2022-11-30T07:43:17.925Z,7.40
2022-11-30T07:44:18.218Z,8.20
2022-11-30T07:45:17.919Z,11.70
2022-11-30T07:46:18.318Z,10.90
2022-11-30T07:47:18.558Z,10.10
2022-11-30T07:48:18.495Z,7.90
2022-11-30T07:49:18.508Z,8.50
2022-11-30T07:50:18.043Z,8.90
2022-11-30T07:51:18.034Z,11.40
2022-11-30T07:52:18.253Z,11.50
2022-11-30T07:53:18.147Z,15.30
2022-11-30T07:54:18.238Z,31.80
2022-11-30T07:55:18.005Z,30.00
2022-11-30T07:56:17.743Z,27.90
2022-11-30T07:57:18.026Z,27.90
2022-11-30T07:58:17.800Z,21.50
2022-11-30T07:59:18.274Z,16.30
2022-11-30T08:00:18.509Z,12.70
2022-11-30T08:01:18.612Z,16.90
2022-11-30T08:02:18.498Z,21.90
2022-11-30T08:03:18.511Z,18.10
2022-11-30T08:04:18.681Z,17.30
2022-11-30T08:05:19.146Z,13.70
2022-11-30T08:06:18.434Z,7.30
2022-11-30T08:07:18.948Z,8.70
2022-11-30T08:08:18.557Z,9.90
2022-11-30T08:09:20.879Z,10.30
2022-11-30T08:10:18.705Z,8.00
2022-11-30T08:11:18.093Z,7.50
2022-11-30T08:12:18.329Z,7.80
2022-11-30T08:13:18.107Z,10.90
2022-11-30T08:14:18.505Z,8.60
2022-11-30T08:15:20.321Z,12.20
2022-11-30T08:16:17.962Z,9.60
2022-11-30T08:17:17.917Z,12.30
2022-11-30T08:18:17.877Z,9.40
2022-11-30T08:19:18.874Z,10.20
2022-11-30T08:20:17.930Z,10.60
2022-11-30T08:21:18.274Z,9.40
2022-11-30T08:22:18.299Z,8.50
2022-11-30T08:23:18.881Z,12.20
2022-11-30T08:24:18.672Z,56.20
2022-11-30T08:25:18.055Z,55.10
2022-11-30T08:26:18.485Z,33.10
2022-11-30T08:27:18.252Z,11.20
2022-11-30T08:28:17.950Z,11.30
2022-11-30T08:29:18.721Z,10.40
2022-11-30T08:30:17.872Z,16.80
2022-11-30T08:31:18.241Z,17.20
2022-11-30T08:32:17.888Z,16.20
2022-11-30T08:33:17.950Z,9.90
2022-11-30T08:34:17.926Z,10.40
2022-11-30T08:35:17.555Z,19.70
2022-11-30T08:36:18.421Z,15.50
2022-11-30T08:37:17.942Z,12.90
2022-11-30T08:38:17.910Z,13.80
2022-11-30T08:39:18.539Z,8.30
2022-11-30T08:40:17.849Z,10.70
2022-11-30T08:41:18.108Z,10.50
2022-11-30T08:42:17.602Z,13.10
2022-11-30T08:43:17.274Z,9.80
2022-11-30T08:44:17.941Z,11.20
2022-11-30T08:45:17.318Z,8.70
2022-11-30T08:47:18.159Z,9.50
2022-11-30T08:48:18.382Z,9.60
2022-11-30T08:49:22.130Z,10.50
2022-11-30T08:50:17.683Z,10.60
2022-11-30T08:51:17.985Z,10.90
2022-11-30T08:52:18.632Z,12.20
2022-11-30T08:53:17.908Z,9.00
2022-11-30T08:54:17.563Z,10.90
2022-11-30T08:55:18.615Z,9.00
2022-11-30T08:56:18.303Z,10.30
2022-11-30T08:57:18.114Z,9.40
2022-11-30T08:58:18.134Z,8.50
2022-11-30T08:59:17.713Z,9.50
2022-11-30T09:00:18.075Z,9.80
2022-11-30T09:01:17.689Z,11.40
2022-11-30T09:02:17.368Z,12.30
2022-11-30T09:03:17.649Z,10.30
2022-11-30T09:04:17.139Z,10.00
2022-11-30T09:05:18.364Z,13.50
2022-11-30T09:06:18.085Z,10.20
2022-11-30T09:07:17.769Z,11.40
2022-11-30T09:08:18.544Z,10.60
2022-11-30T09:09:17.212Z,9.70
2022-11-30T09:10:17.912Z,10.70
2022-11-30T09:11:17.531Z,9.30
2022-11-30T09:12:16.892Z,10.40
2022-11-30T09:13:18.472Z,10.20
2022-11-30T09:14:17.280Z,11.40
2022-11-30T09:15:18.254Z,10.70
2022-11-30T09:16:17.152Z,10.70
2022-11-30T09:17:17.269Z,11.30
2022-11-30T09:18:17.169Z,10.00
2022-11-30T09:19:18.100Z,7.90
2022-11-30T09:20:17.609Z,13.00
2022-11-30T09:21:17.489Z,12.40
2022-11-30T09:22:17.705Z,10.80
2022-11-30T09:23:17.146Z,12.50
2022-11-30T09:24:16.933Z,13.80
2022-11-30T09:25:17.345Z,8.30
2022-11-30T09:26:17.069Z,11.40
2022-11-30T09:27:17.392Z,10.60
2022-11-30T09:28:16.788Z,10.00
2022-11-30T09:29:17.528Z,10.50
2022-11-30T09:30:17.115Z,13.60
2022-11-30T09:31:17.187Z,11.80
2022-11-30T09:32:16.973Z,10.50
2022-11-30T09:33:16.968Z,10.50
2022-11-30T09:34:17.283Z,12.20
2022-11-30T09:35:17.182Z,11.60
2022-11-30T09:36:17.071Z,11.40
2022-11-30T09:37:17.564Z,11.90
2022-11-30T09:38:17.009Z,8.70
2022-11-30T09:39:16.661Z,13.20
2022-11-30T09:40:16.692Z,11.40
2022-11-30T09:41:17.397Z,13.00
2022-11-30T09:42:16.833Z,11.40
2022-11-30T09:43:16.681Z,13.30
2022-11-30T09:44:16.719Z,10.70
2022-11-30T09:45:16.838Z,12.50
2022-11-30T09:46:18.165Z,10.80
2022-11-30T09:47:16.507Z,11.80
2022-11-30T09:48:16.482Z,11.60
2022-11-30T09:49:16.772Z,11.10
2022-11-30T09:50:16.625Z,10.70
2022-11-30T09:51:16.922Z,10.30
2022-11-30T09:52:17.447Z,13.80
2022-11-30T09:53:18.467Z,11.20
2022-11-30T09:54:17.223Z,10.50
2022-11-30T09:55:17.011Z,12.40
2022-11-30T09:56:16.720Z,12.90
2022-11-30T09:57:16.561Z,9.30
2022-11-30T09:58:16.548Z,10.20
2022-11-30T09:59:16.722Z,12.30
2022-11-30T10:00:16.771Z,11.70
2022-11-30T10:01:16.749Z,12.40
2022-11-30T10:02:16.643Z,12.10
2022-11-30T10:03:16.907Z,12.70
2022-11-30T10:04:16.958Z,11.70
2022-11-30T10:05:16.471Z,10.60
2022-11-30T10:06:16.962Z,13.20
2022-11-30T10:07:17.456Z,11.30
2022-11-30T10:08:18.255Z,10.50
2022-11-30T10:09:16.937Z,11.00
2022-11-30T10:10:34.030Z,12.10
2022-11-30T10:11:16.885Z,10.70
2022-11-30T10:12:16.913Z,8.10
2022-11-30T10:13:17.963Z,10.00
2022-11-30T10:14:16.810Z,11.30
2022-11-30T10:15:16.468Z,11.90
2022-11-30T10:16:16.878Z,9.00
2022-11-30T10:17:16.927Z,11.70
2022-11-30T10:18:16.328Z,9.90
2022-11-30T10:19:16.472Z,11.60
2022-11-30T10:20:16.368Z,12.20
2022-11-30T10:21:16.112Z,7.70
2022-11-30T10:22:16.124Z,10.70
2022-11-30T10:23:16.484Z,10.00
2022-11-30T10:24:15.864Z,11.20
2022-11-30T10:25:16.153Z,12.30
2022-11-30T10:26:16.138Z,10.90
2022-11-30T10:27:17.742Z,11.20
2022-11-30T10:28:45.108Z,10.30
2022-11-30T10:29:15.948Z,13.60
2022-11-30T10:30:16.105Z,8.90
2022-11-30T10:31:16.343Z,11.20
2022-11-30T10:32:16.341Z,11.60
2022-11-30T10:33:16.250Z,9.30
2022-11-30T10:34:16.458Z,9.80
2022-11-30T10:35:15.838Z,10.10
2022-11-30T10:36:16.060Z,11.60
2022-11-30T10:37:16.525Z,10.90
2022-11-30T10:38:16.671Z,10.60
2022-11-30T10:39:16.558Z,10.90
2022-11-30T10:40:16.195Z,9.30
2022-11-30T10:41:16.332Z,8.10
2022-11-30T10:42:16.869Z,6.80
2022-11-30T10:43:16.145Z,9.10
2022-11-30T10:44:17.555Z,14.70
2022-11-30T10:45:15.880Z,11.70
2022-11-30T10:46:17.316Z,15.90
2022-11-30T10:47:15.832Z,9.80
2022-11-30T10:48:15.684Z,11.30
2022-11-30T10:49:15.835Z,10.60
2022-11-30T10:50:15.812Z,15.00
2022-11-30T10:51:15.962Z,11.00
2022-11-30T10:52:15.785Z,8.50
2022-11-30T10:53:16.037Z,11.10
2022-11-30T10:54:16.093Z,13.90
2022-11-30T10:55:15.969Z,7.40
2022-11-30T10:56:15.651Z,10.50
2022-11-30T10:57:15.501Z,12.10
2022-11-30T10:58:15.687Z,8.60
2022-11-30T10:59:15.604Z,7.20
2022-11-30T11:00:15.984Z,10.10
2022-11-30T11:01:15.696Z,10.90
2022-11-30T11:02:15.616Z,8.70
2022-11-30T11:03:15.495Z,8.70
2022-11-30T11:04:15.829Z,7.70
2022-11-30T11:05:15.552Z,10.80
2022-11-30T11:06:15.345Z,8.30
2022-11-30T11:07:15.824Z,7.70
2022-11-30T11:08:15.623Z,6.60
2022-11-30T11:09:15.407Z,6.90
2022-11-30T11:10:15.881Z,7.00
2022-11-30T11:11:15.667Z,6.10
2022-11-30T11:12:15.395Z,7.00
2022-11-30T11:13:16.122Z,9.10
2022-11-30T11:14:15.846Z,10.40
2022-11-30T11:15:15.395Z,11.10
2022-11-30T11:16:15.368Z,10.40
2022-11-30T11:17:15.617Z,9.50
2022-11-30T11:18:15.244Z,8.50
2022-11-30T11:19:15.454Z,6.80
2022-11-30T11:20:15.140Z,11.50
2022-11-30T11:21:15.487Z,7.60
2022-11-30T11:22:15.107Z,7.50
2022-11-30T11:23:15.204Z,7.30
2022-11-30T11:24:15.122Z,7.90
2022-11-30T11:25:15.251Z,8.60
2022-11-30T11:26:15.113Z,9.40
2022-11-30T11:27:15.370Z,9.10
2022-11-30T11:28:15.077Z,9.20
2022-11-30T11:29:15.252Z,8.30
2022-11-30T11:30:14.984Z,8.40
2022-11-30T11:31:15.426Z,10.00
2022-11-30T11:32:15.044Z,9.50
2022-11-30T11:33:15.132Z,8.40
2022-11-30T11:34:15.457Z,9.20
2022-11-30T11:35:15.151Z,12.30
2022-11-30T11:36:15.083Z,8.90
2022-11-30T11:37:15.073Z,9.40
2022-11-30T11:38:14.988Z,9.80
2022-11-30T11:39:15.859Z,8.80
2022-11-30T11:40:14.976Z,11.60
2022-11-30T11:41:15.504Z,8.10
2022-11-30T11:42:17.833Z,10.60
2022-11-30T11:43:15.120Z,9.30
2022-11-30T11:44:15.173Z,10.20
2022-11-30T11:45:15.151Z,9.00
2022-11-30T11:46:15.297Z,9.00
2022-11-30T11:47:15.002Z,9.10
2022-11-30T11:48:15.496Z,8.30
2022-11-30T11:49:14.874Z,7.10
2022-11-30T11:50:14.867Z,10.10
2022-11-30T11:51:15.369Z,8.40
2022-11-30T11:52:15.005Z,9.40
2022-11-30T11:53:14.953Z,9.90
2022-11-30T11:54:20.992Z,11.70
2022-11-30T11:55:14.790Z,9.50
2022-11-30T11:56:15.065Z,10.70
2022-11-30T11:57:15.760Z,9.50
2022-11-30T11:58:14.728Z,10.60
2022-11-30T11:59:15.220Z,11.00
2022-11-30T12:00:16.279Z,9.80
2022-11-30T12:01:39.220Z,12.40
2022-11-30T12:02:15.277Z,9.50
2022-11-30T12:03:16.275Z,9.90
2022-11-30T12:04:15.358Z,8.80
2022-11-30T12:05:15.476Z,9.00
2022-11-30T12:06:15.494Z,11.70
2022-11-30T12:07:18.116Z,9.30
2022-11-30T12:08:14.762Z,11.50
2022-11-30T12:09:14.859Z,14.40
2022-11-30T12:10:43.641Z,10.50
2022-11-30T12:11:14.627Z,8.20
2022-11-30T12:12:21.529Z,9.60
2022-11-30T12:13:14.889Z,10.60
2022-11-30T12:14:15.480Z,8.80
2022-11-30T12:15:14.672Z,8.40
2022-11-30T12:16:14.841Z,9.50
2022-11-30T12:17:15.020Z,8.90
2022-11-30T12:18:22.329Z,14.20
2022-11-30T12:19:14.406Z,7.90
2022-11-30T12:20:14.643Z,10.90
2022-11-30T12:21:14.591Z,10.00
2022-11-30T12:22:14.478Z,10.20
2022-11-30T12:23:15.534Z,11.80
2022-11-30T12:24:14.698Z,13.40
2022-11-30T12:25:15.759Z,12.50
2022-11-30T12:26:15.059Z,10.30
2022-11-30T12:27:14.423Z,10.00
2022-11-30T12:28:14.893Z,8.70
2022-11-30T12:29:14.782Z,7.80
2022-11-30T12:30:14.979Z,10.30
2022-11-30T12:31:15.130Z,11.30
2022-11-30T12:32:14.832Z,11.00
2022-11-30T12:33:15.171Z,9.90
2022-11-30T12:34:14.576Z,13.60
2022-11-30T12:35:14.642Z,10.20
2022-11-30T12:36:15.168Z,7.50
2022-11-30T12:37:14.557Z,8.60
2022-11-30T12:38:14.412Z,9.30
2022-11-30T12:39:14.319Z,10.90
2022-11-30T12:40:14.538Z,9.00
2022-11-30T12:41:14.671Z,9.40
2022-11-30T12:42:15.502Z,9.30
2022-11-30T12:43:15.076Z,9.50
2022-11-30T12:44:15.024Z,7.50
2022-11-30T12:45:14.302Z,7.90
2022-11-30T12:46:14.490Z,9.20
2022-11-30T12:47:14.728Z,10.40
2022-11-30T12:48:14.572Z,10.70
2022-11-30T12:49:14.393Z,8.90
2022-11-30T12:50:14.193Z,7.90
2022-11-30T12:51:14.554Z,11.40
2022-11-30T12:52:15.544Z,10.00
2022-11-30T12:53:15.127Z,9.10
2022-11-30T12:54:14.962Z,9.80
2022-11-30T12:55:14.215Z,10.40
2022-11-30T12:56:15.406Z,9.50
2022-11-30T12:57:14.414Z,11.30
2022-11-30T12:58:15.320Z,13.10
2022-11-30T12:59:14.421Z,10.70
2022-11-30T13:00:15.233Z,9.50
2022-11-30T13:01:14.962Z,9.00
2022-11-30T13:02:15.539Z,10.10